sensor_id;sensor_type;location;lat;lon;timestamp;P1;durP1;ratioP1;P2;durP2;ratioP2
11943;SDS011;6031;50.220;10.122;2022-07-23T00:00:53;4.60;;;3.27;;
11943;SDS011;6031;50.220;10.122;2022-07-23T00:03:19;3.83;;;3.53;;
11943;SDS011;6031;50.220;10.122;2022-07-23T00:05:44;3.93;;;3.30;;
11943;SDS011;6031;50.220;10.122;2022-07-23T00:08:10;2.70;;;2.60;;
11943;SDS011;6031;50.220;10.122;2022-07-23T00:10:36;3.20;;;2.90;;
11943;SDS011;6031;50.220;10.122;2022-07-23T00:13:02;3.63;;;3.33;;
11943;SDS011;6031;50.220;10.122;2022-07-23T00:15:27;3.60;;;3.30;;
11943;SDS011;6031;50.220;10.122;2022-07-23T00:17:53;4.97;;;3.50;;
11943;SDS011;6031;50.220;10.122;2022-07-23T00:20:18;5.53;;;3.43;;
11943;SDS011;6031;50.220;10.122;2022-07-23T00:22:48;3.20;;;2.90;;
11943;SDS011;6031;50.220;10.122;2022-07-23T00:25:14;4.00;;;3.70;;
11943;SDS011;6031;50.220;10.122;2022-07-23T00:27:40;3.20;;;3.00;;
11943;SDS011;6031;50.220;10.122;2022-07-23T00:30:06;2.87;;;2.70;;
11943;SDS011;6031;50.220;10.122;2022-07-23T00:32:32;3.37;;;3.17;;
11943;SDS011;6031;50.220;10.122;2022-07-23T00:35:09;5.30;;;4.00;;
11943;SDS011;6031;50.220;10.122;2022-07-23T00:37:34;3.53;;;3.23;;
11943;SDS011;6031;50.220;10.122;2022-07-23T00:40:00;3.60;;;3.33;;
11943;SDS011;6031;50.220;10.122;2022-07-23T00:42:25;3.37;;;3.17;;
11943;SDS011;6031;50.220;10.122;2022-07-23T00:44:51;5.90;;;3.20;;
11943;SDS011;6031;50.220;10.122;2022-07-23T00:47:16;3.60;;;3.30;;
11943;SDS011;6031;50.220;10.122;2022-07-23T00:49:42;3.60;;;3.20;;
11943;SDS011;6031;50.220;10.122;2022-07-23T00:52:07;6.57;;;3.70;;
11943;SDS011;6031;50.220;10.122;2022-07-23T00:54:33;3.97;;;3.57;;
11943;SDS011;6031;50.220;10.122;2022-07-23T00:56:58;5.90;;;3.37;;
11943;SDS011;6031;50.220;10.122;2022-07-23T00:59:24;3.37;;;3.17;;
11943;SDS011;6031;50.220;10.122;2022-07-23T01:01:49;3.10;;;2.90;;
11943;SDS011;6031;50.220;10.122;2022-07-23T01:04:15;5.30;;;3.20;;
11943;SDS011;6031;50.220;10.122;2022-07-23T01:06:41;3.90;;;3.40;;
11943;SDS011;6031;50.220;10.122;2022-07-23T01:09:08;3.37;;;3.17;;
11943;SDS011;6031;50.220;10.122;2022-07-23T01:11:34;3.80;;;3.50;;
11943;SDS011;6031;50.220;10.122;2022-07-23T01:14:08;4.73;;;3.50;;
11943;SDS011;6031;50.220;10.122;2022-07-23T01:16:39;5.47;;;3.90;;
11943;SDS011;6031;50.220;10.122;2022-07-23T01:19:05;3.97;;;3.67;;
11943;SDS011;6031;50.220;10.122;2022-07-23T01:21:31;4.97;;;3.37;;
11943;SDS011;6031;50.220;10.122;2022-07-23T01:24:00;4.17;;;3.87;;
11943;SDS011;6031;50.220;10.122;2022-07-23T01:26:26;3.90;;;3.60;;
11943;SDS011;6031;50.220;10.122;2022-07-23T01:28:51;3.77;;;3.47;;
11943;SDS011;6031;50.220;10.122;2022-07-23T01:31:17;4.40;;;3.80;;
11943;SDS011;6031;50.220;10.122;2022-07-23T01:33:44;3.93;;;3.60;;
11943;SDS011;6031;50.220;10.122;2022-07-23T01:36:09;4.33;;;3.17;;
11943;SDS011;6031;50.220;10.122;2022-07-23T01:38:35;5.70;;;3.77;;
11943;SDS011;6031;50.220;10.122;2022-07-23T01:41:00;3.60;;;3.30;;
11943;SDS011;6031;50.220;10.122;2022-07-23T01:43:26;3.83;;;3.40;;
11943;SDS011;6031;50.220;10.122;2022-07-23T01:45:51;3.47;;;3.27;;
11943;SDS011;6031;50.220;10.122;2022-07-23T01:48:17;4.67;;;3.60;;
11943;SDS011;6031;50.220;10.122;2022-07-23T01:50:43;7.53;;;4.27;;
11943;SDS011;6031;50.220;10.122;2022-07-23T01:53:08;4.47;;;3.93;;
11943;SDS011;6031;50.220;10.122;2022-07-23T01:55:34;4.57;;;3.47;;
11943;SDS011;6031;50.220;10.122;2022-07-23T01:57:59;3.40;;;3.10;;
11943;SDS011;6031;50.220;10.122;2022-07-23T02:00:25;4.10;;;3.63;;
11943;SDS011;6031;50.220;10.122;2022-07-23T02:02:50;4.90;;;3.60;;
11943;SDS011;6031;50.220;10.122;2022-07-23T02:05:16;4.27;;;3.37;;
11943;SDS011;6031;50.220;10.122;2022-07-23T02:07:41;3.20;;;3.00;;
11943;SDS011;6031;50.220;10.122;2022-07-23T02:10:07;5.27;;;3.40;;
11943;SDS011;6031;50.220;10.122;2022-07-23T02:12:33;4.03;;;3.73;;
11943;SDS011;6031;50.220;10.122;2022-07-23T02:14:58;3.97;;;3.67;;
11943;SDS011;6031;50.220;10.122;2022-07-23T02:17:24;4.20;;;3.77;;
11943;SDS011;6031;50.220;10.122;2022-07-23T02:19:49;4.27;;;3.87;;
11943;SDS011;6031;50.220;10.122;2022-07-23T02:22:15;4.37;;;3.97;;
11943;SDS011;6031;50.220;10.122;2022-07-23T02:24:40;3.60;;;3.30;;
11943;SDS011;6031;50.220;10.122;2022-07-23T02:27:06;3.90;;;3.43;;
11943;SDS011;6031;50.220;10.122;2022-07-23T02:29:31;4.50;;;3.93;;
11943;SDS011;6031;50.220;10.122;2022-07-23T02:31:57;4.17;;;3.87;;
11943;SDS011;6031;50.220;10.122;2022-07-23T02:34:22;6.37;;;3.40;;
11943;SDS011;6031;50.220;10.122;2022-07-23T02:36:48;4.63;;;4.30;;
11943;SDS011;6031;50.220;10.122;2022-07-23T02:39:13;3.73;;;3.43;;
11943;SDS011;6031;50.220;10.122;2022-07-23T02:41:39;3.87;;;3.50;;
11943;SDS011;6031;50.220;10.122;2022-07-23T02:44:05;3.97;;;3.67;;
11943;SDS011;6031;50.220;10.122;2022-07-23T02:46:31;4.17;;;3.33;;
11943;SDS011;6031;50.220;10.122;2022-07-23T02:48:56;3.93;;;3.63;;
11943;SDS011;6031;50.220;10.122;2022-07-23T02:51:22;4.00;;;3.70;;
11943;SDS011;6031;50.220;10.122;2022-07-23T02:53:47;4.53;;;3.87;;
11943;SDS011;6031;50.220;10.122;2022-07-23T02:56:13;4.13;;;3.83;;
11943;SDS011;6031;50.220;10.122;2022-07-23T02:58:38;4.03;;;3.57;;
11943;SDS011;6031;50.220;10.122;2022-07-23T03:01:04;5.87;;;3.93;;
11943;SDS011;6031;50.220;10.122;2022-07-23T03:03:29;6.90;;;4.00;;
11943;SDS011;6031;50.220;10.122;2022-07-23T03:05:55;5.07;;;4.23;;
11943;SDS011;6031;50.220;10.122;2022-07-23T03:08:20;4.43;;;4.03;;
11943;SDS011;6031;50.220;10.122;2022-07-23T03:10:46;4.70;;;3.70;;
11943;SDS011;6031;50.220;10.122;2022-07-23T03:13:11;6.17;;;4.40;;
11943;SDS011;6031;50.220;10.122;2022-07-23T03:15:37;6.60;;;4.00;;
11943;SDS011;6031;50.220;10.122;2022-07-23T03:18:02;8.50;;;4.30;;
11943;SDS011;6031;50.220;10.122;2022-07-23T03:20:28;4.40;;;3.70;;
11943;SDS011;6031;50.220;10.122;2022-07-23T03:22:53;5.63;;;4.33;;
11943;SDS011;6031;50.220;10.122;2022-07-23T03:25:19;5.27;;;4.10;;
11943;SDS011;6031;50.220;10.122;2022-07-23T03:27:45;4.23;;;3.93;;
11943;SDS011;6031;50.220;10.122;2022-07-23T03:30:10;4.97;;;3.93;;
11943;SDS011;6031;50.220;10.122;2022-07-23T03:32:36;6.43;;;3.93;;
11943;SDS011;6031;50.220;10.122;2022-07-23T03:35:02;4.57;;;4.17;;
11943;SDS011;6031;50.220;10.122;2022-07-23T03:37:28;4.53;;;4.10;;
11943;SDS011;6031;50.220;10.122;2022-07-23T03:39:54;6.97;;;4.17;;
11943;SDS011;6031;50.220;10.122;2022-07-23T03:42:19;6.43;;;4.33;;
11943;SDS011;6031;50.220;10.122;2022-07-23T03:44:45;6.90;;;4.33;;
11943;SDS011;6031;50.220;10.122;2022-07-23T03:47:10;5.50;;;4.67;;
11943;SDS011;6031;50.220;10.122;2022-07-23T03:49:36;8.43;;;4.17;;
11943;SDS011;6031;50.220;10.122;2022-07-23T03:52:01;5.40;;;4.37;;
11943;SDS011;6031;50.220;10.122;2022-07-23T03:54:27;6.07;;;4.60;;
11943;SDS011;6031;50.220;10.122;2022-07-23T03:56:53;7.17;;;4.50;;
11943;SDS011;6031;50.220;10.122;2022-07-23T03:59:18;4.33;;;3.97;;
11943;SDS011;6031;50.220;10.122;2022-07-23T04:01:44;6.40;;;4.13;;
11943;SDS011;6031;50.220;10.122;2022-07-23T04:04:09;6.57;;;3.97;;
11943;SDS011;6031;50.220;10.122;2022-07-23T04:06:35;5.17;;;4.37;;
11943;SDS011;6031;50.220;10.122;2022-07-23T04:09:01;4.93;;;4.43;;
11943;SDS011;6031;50.220;10.122;2022-07-23T04:11:27;7.23;;;4.40;;
11943;SDS011;6031;50.220;10.122;2022-07-23T04:13:52;4.37;;;3.77;;
11943;SDS011;6031;50.220;10.122;2022-07-23T04:16:18;5.53;;;4.53;;
11943;SDS011;6031;50.220;10.122;2022-07-23T04:18:43;4.57;;;4.17;;
11943;SDS011;6031;50.220;10.122;2022-07-23T04:21:09;4.83;;;4.07;;
11943;SDS011;6031;50.220;10.122;2022-07-23T04:23:35;4.40;;;4.00;;
11943;SDS011;6031;50.220;10.122;2022-07-23T04:26:00;4.47;;;4.07;;
11943;SDS011;6031;50.220;10.122;2022-07-23T04:28:26;5.50;;;4.00;;
11943;SDS011;6031;50.220;10.122;2022-07-23T04:30:51;5.20;;;4.10;;
11943;SDS011;6031;50.220;10.122;2022-07-23T04:33:17;8.27;;;3.70;;
11943;SDS011;6031;50.220;10.122;2022-07-23T04:35:42;4.97;;;4.00;;
11943;SDS011;6031;50.220;10.122;2022-07-23T04:38:08;4.60;;;4.20;;
11943;SDS011;6031;50.220;10.122;2022-07-23T04:40:34;7.40;;;4.53;;
11943;SDS011;6031;50.220;10.122;2022-07-23T04:42:59;4.60;;;4.07;;
11943;SDS011;6031;50.220;10.122;2022-07-23T04:45:25;6.33;;;3.83;;
11943;SDS011;6031;50.220;10.122;2022-07-23T04:47:50;6.30;;;4.20;;
11943;SDS011;6031;50.220;10.122;2022-07-23T04:50:16;7.57;;;4.07;;
11943;SDS011;6031;50.220;10.122;2022-07-23T04:52:46;4.53;;;3.90;;
11943;SDS011;6031;50.220;10.122;2022-07-23T04:55:13;4.87;;;4.00;;
11943;SDS011;6031;50.220;10.122;2022-07-23T04:57:38;4.40;;;4.00;;
11943;SDS011;6031;50.220;10.122;2022-07-23T05:00:04;5.73;;;4.30;;
11943;SDS011;6031;50.220;10.122;2022-07-23T05:02:30;4.87;;;3.70;;
11943;SDS011;6031;50.220;10.122;2022-07-23T05:04:56;6.60;;;4.80;;
11943;SDS011;6031;50.220;10.122;2022-07-23T05:07:21;8.03;;;4.60;;
11943;SDS011;6031;50.220;10.122;2022-07-23T05:09:47;5.37;;;4.77;;
11943;SDS011;6031;50.220;10.122;2022-07-23T05:12:12;5.20;;;4.67;;
11943;SDS011;6031;50.220;10.122;2022-07-23T05:14:38;6.23;;;4.93;;
11943;SDS011;6031;50.220;10.122;2022-07-23T05:17:04;5.37;;;3.90;;
11943;SDS011;6031;50.220;10.122;2022-07-23T05:19:30;6.03;;;4.87;;
11943;SDS011;6031;50.220;10.122;2022-07-23T05:21:55;5.73;;;4.40;;
11943;SDS011;6031;50.220;10.122;2022-07-23T05:24:21;5.53;;;4.23;;
11943;SDS011;6031;50.220;10.122;2022-07-23T05:26:47;5.77;;;4.30;;
11943;SDS011;6031;50.220;10.122;2022-07-23T05:29:12;4.57;;;4.17;;
11943;SDS011;6031;50.220;10.122;2022-07-23T05:31:38;6.07;;;4.53;;
11943;SDS011;6031;50.220;10.122;2022-07-23T05:34:03;4.70;;;4.10;;
11943;SDS011;6031;50.220;10.122;2022-07-23T05:36:30;4.60;;;4.20;;
11943;SDS011;6031;50.220;10.122;2022-07-23T05:38:56;4.23;;;3.93;;
11943;SDS011;6031;50.220;10.122;2022-07-23T05:41:22;9.17;;;4.43;;
11943;SDS011;6031;50.220;10.122;2022-07-23T05:43:47;4.73;;;4.33;;
11943;SDS011;6031;50.220;10.122;2022-07-23T05:46:13;4.20;;;3.90;;
11943;SDS011;6031;50.220;10.122;2022-07-23T05:48:38;4.40;;;4.00;;
11943;SDS011;6031;50.220;10.122;2022-07-23T05:51:04;6.23;;;4.33;;
11943;SDS011;6031;50.220;10.122;2022-07-23T05:53:31;5.90;;;4.80;;
11943;SDS011;6031;50.220;10.122;2022-07-23T05:55:57;5.07;;;4.67;;
11943;SDS011;6031;50.220;10.122;2022-07-23T05:58:23;6.47;;;4.40;;
11943;SDS011;6031;50.220;10.122;2022-07-23T06:00:48;5.47;;;4.70;;
11943;SDS011;6031;50.220;10.122;2022-07-23T06:03:14;5.20;;;4.70;;
11943;SDS011;6031;50.220;10.122;2022-07-23T06:05:40;5.20;;;4.70;;
11943;SDS011;6031;50.220;10.122;2022-07-23T06:08:05;6.13;;;5.57;;
11943;SDS011;6031;50.220;10.122;2022-07-23T06:10:31;5.67;;;4.37;;
11943;SDS011;6031;50.220;10.122;2022-07-23T06:12:56;5.80;;;5.00;;
11943;SDS011;6031;50.220;10.122;2022-07-23T06:15:22;5.23;;;4.83;;
11943;SDS011;6031;50.220;10.122;2022-07-23T06:17:47;5.60;;;5.00;;
11943;SDS011;6031;50.220;10.122;2022-07-23T06:20:13;5.70;;;4.63;;
11943;SDS011;6031;50.220;10.122;2022-07-23T06:22:38;4.63;;;4.27;;
11943;SDS011;6031;50.220;10.122;2022-07-23T06:25:04;5.00;;;4.57;;
11943;SDS011;6031;50.220;10.122;2022-07-23T06:27:30;4.47;;;4.10;;
11943;SDS011;6031;50.220;10.122;2022-07-23T06:29:56;11.07;;;4.80;;
11943;SDS011;6031;50.220;10.122;2022-07-23T06:32:21;4.97;;;4.50;;
11943;SDS011;6031;50.220;10.122;2022-07-23T06:34:47;6.30;;;4.80;;
11943;SDS011;6031;50.220;10.122;2022-07-23T06:37:12;5.23;;;4.40;;
11943;SDS011;6031;50.220;10.122;2022-07-23T06:39:38;4.67;;;4.27;;
11943;SDS011;6031;50.220;10.122;2022-07-23T06:42:03;7.50;;;4.37;;
11943;SDS011;6031;50.220;10.122;2022-07-23T06:44:29;5.07;;;4.40;;
11943;SDS011;6031;50.220;10.122;2022-07-23T06:46:55;6.97;;;4.37;;
11943;SDS011;6031;50.220;10.122;2022-07-23T06:49:20;5.73;;;4.17;;
11943;SDS011;6031;50.220;10.122;2022-07-23T06:51:46;4.40;;;4.10;;
11943;SDS011;6031;50.220;10.122;2022-07-23T06:54:11;5.47;;;4.57;;
11943;SDS011;6031;50.220;10.122;2022-07-23T06:56:37;7.57;;;4.73;;
11943;SDS011;6031;50.220;10.122;2022-07-23T06:59:02;4.50;;;4.17;;
11943;SDS011;6031;50.220;10.122;2022-07-23T07:01:28;6.47;;;4.57;;
11943;SDS011;6031;50.220;10.122;2022-07-23T07:03:54;5.03;;;4.43;;
11943;SDS011;6031;50.220;10.122;2022-07-23T07:06:19;8.07;;;4.97;;
11943;SDS011;6031;50.220;10.122;2022-07-23T07:08:45;5.17;;;4.73;;
11943;SDS011;6031;50.220;10.122;2022-07-23T07:11:11;5.20;;;4.43;;
11943;SDS011;6031;50.220;10.122;2022-07-23T07:13:37;4.97;;;4.50;;
11943;SDS011;6031;50.220;10.122;2022-07-23T07:16:03;7.40;;;4.60;;
11943;SDS011;6031;50.220;10.122;2022-07-23T07:18:29;6.20;;;4.33;;
11943;SDS011;6031;50.220;10.122;2022-07-23T07:20:54;5.07;;;4.40;;
11943;SDS011;6031;50.220;10.122;2022-07-23T07:23:21;4.77;;;4.27;;
11943;SDS011;6031;50.220;10.122;2022-07-23T07:25:46;5.40;;;4.87;;
11943;SDS011;6031;50.220;10.122;2022-07-23T07:28:12;5.03;;;4.13;;
11943;SDS011;6031;50.220;10.122;2022-07-23T07:30:38;5.73;;;4.43;;
11943;SDS011;6031;50.220;10.122;2022-07-23T07:33:03;8.13;;;4.60;;
11943;SDS011;6031;50.220;10.122;2022-07-23T07:35:29;5.20;;;4.63;;
11943;SDS011;6031;50.220;10.122;2022-07-23T07:37:56;4.80;;;4.40;;
11943;SDS011;6031;50.220;10.122;2022-07-23T07:40:21;5.10;;;4.60;;
11943;SDS011;6031;50.220;10.122;2022-07-23T07:42:48;5.70;;;4.87;;
11943;SDS011;6031;50.220;10.122;2022-07-23T07:45:15;4.43;;;4.10;;
11943;SDS011;6031;50.220;10.122;2022-07-23T07:47:40;4.83;;;4.30;;
11943;SDS011;6031;50.220;10.122;2022-07-23T07:50:06;5.20;;;4.70;;
11943;SDS011;6031;50.220;10.122;2022-07-23T07:52:33;6.37;;;4.43;;
11943;SDS011;6031;50.220;10.122;2022-07-23T07:55:01;4.20;;;3.90;;
11943;SDS011;6031;50.220;10.122;2022-07-23T07:57:27;5.17;;;4.70;;
11943;SDS011;6031;50.220;10.122;2022-07-23T07:59:53;4.33;;;3.80;;
11943;SDS011;6031;50.220;10.122;2022-07-23T08:02:18;4.80;;;4.40;;
11943;SDS011;6031;50.220;10.122;2022-07-23T08:04:44;5.00;;;4.50;;
11943;SDS011;6031;50.220;10.122;2022-07-23T08:07:09;5.57;;;4.70;;
11943;SDS011;6031;50.220;10.122;2022-07-23T08:09:35;4.13;;;3.83;;
11943;SDS011;6031;50.220;10.122;2022-07-23T08:12:00;5.50;;;4.07;;
11943;SDS011;6031;50.220;10.122;2022-07-23T08:14:26;4.53;;;4.13;;
11943;SDS011;6031;50.220;10.122;2022-07-23T08:16:51;4.57;;;4.10;;
11943;SDS011;6031;50.220;10.122;2022-07-23T08:19:17;5.30;;;4.60;;
11943;SDS011;6031;50.220;10.122;2022-07-23T08:21:43;5.13;;;4.07;;
11943;SDS011;6031;50.220;10.122;2022-07-23T08:24:08;4.60;;;3.93;;
11943;SDS011;6031;50.220;10.122;2022-07-23T08:26:34;5.20;;;4.50;;
11943;SDS011;6031;50.220;10.122;2022-07-23T08:28:59;4.57;;;3.80;;
11943;SDS011;6031;50.220;10.122;2022-07-23T08:31:25;4.88;;;4.35;;
11943;SDS011;6031;50.220;10.122;2022-07-23T08:33:50;6.90;;;3.97;;
11943;SDS011;6031;50.220;10.122;2022-07-23T08:36:17;3.97;;;3.67;;
11943;SDS011;6031;50.220;10.122;2022-07-23T08:38:42;3.95;;;3.63;;
11943;SDS011;6031;50.220;10.122;2022-07-23T08:41:08;4.28;;;3.85;;
11943;SDS011;6031;50.220;10.122;2022-07-23T08:43:34;4.25;;;3.90;;
11943;SDS011;6031;50.220;10.122;2022-07-23T08:46:01;4.55;;;3.83;;
11943;SDS011;6031;50.220;10.122;2022-07-23T08:48:31;3.92;;;3.55;;
11943;SDS011;6031;50.220;10.122;2022-07-23T08:50:59;4.75;;;4.07;;
11943;SDS011;6031;50.220;10.122;2022-07-23T08:53:27;5.03;;;3.50;;
11943;SDS011;6031;50.220;10.122;2022-07-23T08:55:54;4.15;;;3.78;;
11943;SDS011;6031;50.220;10.122;2022-07-23T08:58:22;6.53;;;4.10;;
11943;SDS011;6031;50.220;10.122;2022-07-23T09:00:48;6.03;;;4.05;;
11943;SDS011;6031;50.220;10.122;2022-07-23T09:03:21;4.18;;;3.78;;
11943;SDS011;6031;50.220;10.122;2022-07-23T09:05:51;4.80;;;4.13;;
11943;SDS011;6031;50.220;10.122;2022-07-23T09:08:18;5.35;;;4.10;;
11943;SDS011;6031;50.220;10.122;2022-07-23T09:10:59;6.07;;;4.43;;
11943;SDS011;6031;50.220;10.122;2022-07-23T09:13:39;4.85;;;4.40;;
11943;SDS011;6031;50.220;10.122;2022-07-23T09:16:12;5.38;;;4.28;;
11943;SDS011;6031;50.220;10.122;2022-07-23T09:21:09;4.32;;;4.03;;
11943;SDS011;6031;50.220;10.122;2022-07-23T09:26:29;5.32;;;4.47;;
11943;SDS011;6031;50.220;10.122;2022-07-23T09:29:04;4.60;;;3.88;;
11943;SDS011;6031;50.220;10.122;2022-07-23T09:31:42;4.05;;;3.70;;
11943;SDS011;6031;50.220;10.122;2022-07-23T09:36:42;5.85;;;4.60;;
11943;SDS011;6031;50.220;10.122;2022-07-23T09:39:08;4.68;;;4.18;;
11943;SDS011;6031;50.220;10.122;2022-07-23T09:41:35;6.63;;;4.50;;
11943;SDS011;6031;50.220;10.122;2022-07-23T09:44:06;4.85;;;4.45;;
11943;SDS011;6031;50.220;10.122;2022-07-23T09:46:46;4.60;;;4.28;;
11943;SDS011;6031;50.220;10.122;2022-07-23T09:51:52;4.68;;;4.28;;
11943;SDS011;6031;50.220;10.122;2022-07-23T09:56:57;4.68;;;4.32;;
11943;SDS011;6031;50.220;10.122;2022-07-23T09:59:30;4.55;;;4.25;;
11943;SDS011;6031;50.220;10.122;2022-07-23T10:01:58;5.10;;;4.60;;
11943;SDS011;6031;50.220;10.122;2022-07-23T10:04:25;6.47;;;4.45;;
11943;SDS011;6031;50.220;10.122;2022-07-23T10:06:55;4.90;;;4.35;;
11943;SDS011;6031;50.220;10.122;2022-07-23T10:09:24;4.90;;;4.50;;
11943;SDS011;6031;50.220;10.122;2022-07-23T10:11:52;4.55;;;4.15;;
11943;SDS011;6031;50.220;10.122;2022-07-23T10:14:23;4.65;;;3.85;;
11943;SDS011;6031;50.220;10.122;2022-07-23T10:16:50;4.00;;;3.70;;
11943;SDS011;6031;50.220;10.122;2022-07-23T10:19:16;4.07;;;3.72;;
11943;SDS011;6031;50.220;10.122;2022-07-23T10:21:46;4.38;;;4.10;;
11943;SDS011;6031;50.220;10.122;2022-07-23T10:27:05;4.43;;;4.03;;
11943;SDS011;6031;50.220;10.122;2022-07-23T10:30:02;4.90;;;4.50;;
11943;SDS011;6031;50.220;10.122;2022-07-23T10:35:30;3.95;;;3.65;;
11943;SDS011;6031;50.220;10.122;2022-07-23T10:38:10;4.15;;;3.85;;
11943;SDS011;6031;50.220;10.122;2022-07-23T10:40:58;4.53;;;4.15;;
11943;SDS011;6031;50.220;10.122;2022-07-23T10:43:28;5.50;;;4.57;;
11943;SDS011;6031;50.220;10.122;2022-07-23T10:45:54;6.13;;;3.70;;
11943;SDS011;6031;50.220;10.122;2022-07-23T10:48:21;5.07;;;4.68;;
11943;SDS011;6031;50.220;10.122;2022-07-23T10:59:21;4.80;;;3.90;;
11943;SDS011;6031;50.220;10.122;2022-07-23T11:01:47;4.70;;;4.30;;
11943;SDS011;6031;50.220;10.122;2022-07-23T11:04:12;4.90;;;4.10;;
11943;SDS011;6031;50.220;10.122;2022-07-23T11:09:28;4.43;;;4.03;;
11943;SDS011;6031;50.220;10.122;2022-07-23T11:17:22;5.38;;;3.83;;
11943;SDS011;6031;50.220;10.122;2022-07-23T11:25:05;4.60;;;4.20;;
11943;SDS011;6031;50.220;10.122;2022-07-23T11:27:41;4.93;;;4.53;;
11943;SDS011;6031;50.220;10.122;2022-07-23T11:30:12;4.78;;;4.47;;
11943;SDS011;6031;50.220;10.122;2022-07-23T11:32:55;4.72;;;4.32;;
11943;SDS011;6031;50.220;10.122;2022-07-23T11:35:44;5.88;;;4.65;;
11943;SDS011;6031;50.220;10.122;2022-07-23T11:38:15;6.22;;;4.88;;
11943;SDS011;6031;50.220;10.122;2022-07-23T11:40:46;6.53;;;4.75;;
11943;SDS011;6031;50.220;10.122;2022-07-23T11:43:14;5.05;;;4.65;;
11943;SDS011;6031;50.220;10.122;2022-07-23T11:45:42;5.28;;;4.88;;
11943;SDS011;6031;50.220;10.122;2022-07-23T11:48:15;5.25;;;4.85;;
11943;SDS011;6031;50.220;10.122;2022-07-23T11:50:52;5.47;;;4.97;;
11943;SDS011;6031;50.220;10.122;2022-07-23T11:53:25;5.60;;;5.10;;
11943;SDS011;6031;50.220;10.122;2022-07-23T11:58:34;5.30;;;4.90;;
11943;SDS011;6031;50.220;10.122;2022-07-23T12:01:00;5.88;;;5.13;;
11943;SDS011;6031;50.220;10.122;2022-07-23T12:03:26;5.78;;;5.18;;
11943;SDS011;6031;50.220;10.122;2022-07-23T12:05:56;5.07;;;4.68;;
11943;SDS011;6031;50.220;10.122;2022-07-23T12:08:23;5.57;;;4.90;;
11943;SDS011;6031;50.220;10.122;2022-07-23T12:10:48;6.03;;;5.53;;
11943;SDS011;6031;50.220;10.122;2022-07-23T12:13:15;6.65;;;4.57;;
11943;SDS011;6031;50.220;10.122;2022-07-23T12:15:44;5.22;;;4.72;;
11943;SDS011;6031;50.220;10.122;2022-07-23T12:18:12;8.77;;;5.45;;
11943;SDS011;6031;50.220;10.122;2022-07-23T12:20:40;5.05;;;4.68;;
11943;SDS011;6031;50.220;10.122;2022-07-23T12:23:08;5.10;;;4.53;;
11943;SDS011;6031;50.220;10.122;2022-07-23T12:25:37;5.40;;;4.93;;
11943;SDS011;6031;50.220;10.122;2022-07-23T12:28:10;6.22;;;4.78;;
11943;SDS011;6031;50.220;10.122;2022-07-23T12:33:09;4.93;;;4.53;;
11943;SDS011;6031;50.220;10.122;2022-07-23T12:35:45;4.93;;;4.53;;
11943;SDS011;6031;50.220;10.122;2022-07-23T12:38:14;4.55;;;4.18;;
11943;SDS011;6031;50.220;10.122;2022-07-23T12:40:47;5.25;;;4.82;;
11943;SDS011;6031;50.220;10.122;2022-07-23T12:46:12;5.10;;;4.70;;
11943;SDS011;6031;50.220;10.122;2022-07-23T12:51:20;4.32;;;4.03;;
11943;SDS011;6031;50.220;10.122;2022-07-23T12:53:51;4.57;;;4.18;;
11943;SDS011;6031;50.220;10.122;2022-07-23T12:58:54;5.43;;;3.88;;
11943;SDS011;6031;50.220;10.122;2022-07-23T13:01:24;4.80;;;4.40;;
11943;SDS011;6031;50.220;10.122;2022-07-23T13:03:55;4.18;;;3.88;;
11943;SDS011;6031;50.220;10.122;2022-07-23T13:06:35;4.38;;;3.97;;
11943;SDS011;6031;50.220;10.122;2022-07-23T13:09:03;4.50;;;4.20;;
11943;SDS011;6031;50.220;10.122;2022-07-23T13:11:30;4.30;;;4.00;;
11943;SDS011;6031;50.220;10.122;2022-07-23T13:13:56;4.55;;;4.25;;
11943;SDS011;6031;50.220;10.122;2022-07-23T13:16:22;4.43;;;4.10;;
11943;SDS011;6031;50.220;10.122;2022-07-23T13:18:48;4.90;;;4.50;;
11943;SDS011;6031;50.220;10.122;2022-07-23T13:21:13;4.88;;;4.50;;
11943;SDS011;6031;50.220;10.122;2022-07-23T13:23:39;4.32;;;4.03;;
11943;SDS011;6031;50.220;10.122;2022-07-23T13:26:04;4.93;;;4.53;;
11943;SDS011;6031;50.220;10.122;2022-07-23T13:28:30;5.32;;;4.82;;
11943;SDS011;6031;50.220;10.122;2022-07-23T13:30:57;7.38;;;4.90;;
11943;SDS011;6031;50.220;10.122;2022-07-23T13:33:23;6.15;;;4.57;;
11943;SDS011;6031;50.220;10.122;2022-07-23T13:35:50;4.95;;;4.50;;
11943;SDS011;6031;50.220;10.122;2022-07-23T13:38:17;4.47;;;4.07;;
11943;SDS011;6031;50.220;10.122;2022-07-23T13:40:45;4.53;;;4.20;;
11943;SDS011;6031;50.220;10.122;2022-07-23T13:43:13;8.35;;;4.15;;
11943;SDS011;6031;50.220;10.122;2022-07-23T13:45:40;4.55;;;4.15;;
11943;SDS011;6031;50.220;10.122;2022-07-23T13:48:07;7.50;;;4.57;;
11943;SDS011;6031;50.220;10.122;2022-07-23T13:50:34;6.95;;;4.05;;
11943;SDS011;6031;50.220;10.122;2022-07-23T13:53:04;5.95;;;4.05;;
11943;SDS011;6031;50.220;10.122;2022-07-23T13:55:31;5.18;;;4.68;;
11943;SDS011;6031;50.220;10.122;2022-07-23T13:57:58;4.57;;;4.18;;
11943;SDS011;6031;50.220;10.122;2022-07-23T14:00:24;5.65;;;3.90;;
11943;SDS011;6031;50.220;10.122;2022-07-23T14:02:50;7.90;;;4.32;;
11943;SDS011;6031;50.220;10.122;2022-07-23T14:05:16;4.82;;;4.40;;
11943;SDS011;6031;50.220;10.122;2022-07-23T14:07:42;4.47;;;4.18;;
11943;SDS011;6031;50.220;10.122;2022-07-23T14:10:09;3.88;;;3.55;;
11943;SDS011;6031;50.220;10.122;2022-07-23T14:12:35;5.72;;;3.85;;
11943;SDS011;6031;50.220;10.122;2022-07-23T14:15:02;6.82;;;4.25;;
11943;SDS011;6031;50.220;10.122;2022-07-23T14:17:29;4.97;;;4.40;;
11943;SDS011;6031;50.220;10.122;2022-07-23T14:19:54;4.93;;;4.47;;
11943;SDS011;6031;50.220;10.122;2022-07-23T14:22:20;4.53;;;4.22;;
11943;SDS011;6031;50.220;10.122;2022-07-23T14:24:46;4.53;;;4.20;;
11943;SDS011;6031;50.220;10.122;2022-07-23T14:27:11;5.85;;;4.28;;
11943;SDS011;6031;50.220;10.122;2022-07-23T14:29:37;4.40;;;4.10;;
11943;SDS011;6031;50.220;10.122;2022-07-23T14:32:02;5.45;;;4.15;;
11943;SDS011;6031;50.220;10.122;2022-07-23T14:34:28;5.60;;;4.57;;
11943;SDS011;6031;50.220;10.122;2022-07-23T14:36:54;5.22;;;4.72;;
11943;SDS011;6031;50.220;10.122;2022-07-23T14:39:19;4.45;;;4.13;;
11943;SDS011;6031;50.220;10.122;2022-07-23T14:41:45;4.80;;;4.07;;
11943;SDS011;6031;50.220;10.122;2022-07-23T14:44:11;9.13;;;4.07;;
11943;SDS011;6031;50.220;10.122;2022-07-23T14:46:36;4.43;;;4.13;;
11943;SDS011;6031;50.220;10.122;2022-07-23T14:49:02;5.05;;;4.28;;
11943;SDS011;6031;50.220;10.122;2022-07-23T14:51:28;4.47;;;4.07;;
11943;SDS011;6031;50.220;10.122;2022-07-23T14:53:54;4.57;;;4.18;;
11943;SDS011;6031;50.220;10.122;2022-07-23T14:56:19;4.55;;;4.15;;
11943;SDS011;6031;50.220;10.122;2022-07-23T14:58:45;4.82;;;4.43;;
11943;SDS011;6031;50.220;10.122;2022-07-23T15:01:10;4.38;;;3.97;;
11943;SDS011;6031;50.220;10.122;2022-07-23T15:03:36;5.50;;;4.13;;
11943;SDS011;6031;50.220;10.122;2022-07-23T15:06:02;4.50;;;4.10;;
11943;SDS011;6031;50.220;10.122;2022-07-23T15:08:28;6.72;;;4.00;;
11943;SDS011;6031;50.220;10.122;2022-07-23T15:10:53;4.38;;;4.07;;
11943;SDS011;6031;50.220;10.122;2022-07-23T15:13:18;5.97;;;4.20;;
11943;SDS011;6031;50.220;10.122;2022-07-23T15:15:44;4.25;;;3.95;;
11943;SDS011;6031;50.220;10.122;2022-07-23T15:18:10;4.80;;;4.40;;
11943;SDS011;6031;50.220;10.122;2022-07-23T15:20:36;6.18;;;3.90;;
11943;SDS011;6031;50.220;10.122;2022-07-23T15:23:03;4.63;;;4.20;;
11943;SDS011;6031;50.220;10.122;2022-07-23T15:25:31;12.73;;;3.80;;
11943;SDS011;6031;50.220;10.122;2022-07-23T15:27:57;4.38;;;4.00;;
11943;SDS011;6031;50.220;10.122;2022-07-23T15:30:25;4.85;;;4.45;;
11943;SDS011;6031;50.220;10.122;2022-07-23T15:32:51;3.78;;;3.47;;
11943;SDS011;6031;50.220;10.122;2022-07-23T15:35:18;5.88;;;3.97;;
11943;SDS011;6031;50.220;10.122;2022-07-23T15:37:44;3.60;;;3.30;;
11943;SDS011;6031;50.220;10.122;2022-07-23T15:40:10;3.80;;;3.50;;